Time;durP1;ratioP1;P1;durP2;ratioP2;P2;SDS_P1;SDS_P2;PMS_P1;PMS_P2;Temp;Humidity;BMP_temperature;BMP_pressure;BME280_temperature;BME280_humidity;BME280_pressure;Samples;Min_cycle;Max_cycle;Signal;HPM_P1;HPM_P2
2022/09/05 00:01:22;;;;;;;;;;;;;;;19.77;58.38;100587.13;4384198;32;37763;-85
2022/09/05 00:04:05;;;;;;;;;;;;;;;19.76;58.31;100579.28;4382450;32;39221;-86
2022/09/05 00:07:18;;;;;;;;;;;;;;;19.51;59.23;100585.56;4383030;32;36974;-86
2022/09/05 00:10:15;;;;;;;;;;;;;;;19.54;59.05;100594.31;4393281;32;38339;-86
2022/09/05 00:12:44;;;;;;;;;;;;;;;19.78;58.23;100588.00;4382672;32;38265;-86
2022/09/05 00:15:20;;;;;;;;;;;;;;;19.60;59.03;100587.25;4390750;32;39776;-87
2022/09/05 00:18:06;;;;;;;;;;;;;;;19.55;58.94;100590.81;4382739;32;38150;-87
2022/09/05 00:20:54;;;;;;;;;;;;;;;19.72;58.17;100588.94;4396970;32;39156;-88
2022/09/05 00:23:53;;;;;;;;;;;;;;;19.55;58.45;100596.91;4380285;32;37636;-88
2022/09/05 00:26:44;;;;;;;;;;;;;;;19.59;58.43;100593.41;4386422;32;38575;-87
2022/09/05 00:29:23;;;;;;;;;;;;;;;19.31;59.38;100587.50;4388897;32;35160;-87
2022/09/05 00:32:29;;;;;;;;;;;;;;;19.26;59.11;100584.03;4383314;32;37890;-86
2022/09/05 00:35:03;;;;;;;;;;;;;;;19.36;59.12;100583.06;4390299;32;38097;-86
2022/09/05 00:37:33;;;;;;;;;;;;;;;19.37;59.02;100579.59;4385242;32;38932;-84
2022/09/05 00:40:12;;;;;;;;;;;;;;;19.50;58.19;100578.59;4388080;32;37006;-85
2022/09/05 00:42:46;;;;;;;;;;;;;;;19.78;57.34;100578.34;4391643;32;36726;-86
2022/09/05 00:45:15;;;;;;;;;;;;;;;19.10;59.91;100578.03;4369921;32;36963;-85
2022/09/05 00:48:04;;;;;;;;;;;;;;;18.99;59.92;100583.34;4359113;32;37139;-85
2022/09/05 00:50:35;;;;;;;;;;;;;;;19.26;59.23;100587.53;4368101;32;37566;-86
2022/09/05 00:53:05;;;;;;;;;;;;;;;19.18;59.61;100576.22;4377387;32;38325;-86
2022/09/05 00:55:53;;;;;;;;;;;;;;;19.24;59.28;100585.78;4381082;32;38403;-85
2022/09/05 00:58:37;;;;;;;;;;;;;;;19.19;59.66;100577.09;4370421;32;39667;-86
2022/09/05 01:01:07;;;;;;;;;;;;;;;18.92;60.59;100584.28;4388271;32;37092;-85
2022/09/05 01:04:10;;;;;;;;;;;;;;;19.31;59.00;100587.50;4369143;32;37561;-86
2022/09/05 01:06:44;;;;;;;;;;;;;;;19.12;59.50;100580.66;4370793;32;38264;-86
2022/09/05 01:09:17;;;;;;;;;;;;;;;19.21;59.17;100576.22;4377785;32;38290;-86
2022/09/05 01:11:45;;;;;;;;;;;;;;;19.00;59.50;100577.22;4385757;32;37730;-86
2022/09/05 01:14:36;;;;;;;;;;;;;;;19.08;59.10;100578.91;4385671;32;38613;-86
2022/09/05 01:17:22;;;;;;;;;;;;;;;19.00;59.47;100577.22;4374372;32;38975;-86
2022/09/05 01:20:07;;;;;;;;;;;;;;;19.04;59.18;100573.69;4370013;32;40010;-85
2022/09/05 01:23:05;;;;;;;;;;;;;;;19.28;58.35;100571.78;4369039;32;37060;-86
2022/09/05 01:25:53;;;;;;;;;;;;;;;19.47;57.36;100573.38;4381459;32;39300;-86
2022/09/05 01:28:22;;;;;;;;;;;;;;;19.35;57.92;100578.72;4378758;32;38200;-86
2022/09/05 01:31:09;;;;;;;;;;;;;;;18.99;59.14;100575.47;4387383;32;39539;-86
2022/09/05 01:34:00;;;;;;;;;;;;;;;18.86;59.46;100579.06;4377362;32;37230;-86
2022/09/05 01:36:46;;;;;;;;;;;;;;;18.98;59.20;100581.59;4352525;32;39033;-87
2022/09/05 01:39:34;;;;;;;;;;;;;;;18.96;59.26;100579.87;4236204;32;5004055;-86
2022/09/05 01:42:36;;;;;;;;;;;;;;;18.93;59.22;100586.00;4371359;32;39382;-87
2022/09/05 01:45:06;;;;;;;;;;;;;;;18.93;59.05;100580.78;4366909;32;36978;-87
2022/09/05 01:47:38;;;;;;;;;;;;;;;18.79;59.36;100579.97;4387061;32;37810;-86
2022/09/05 01:50:25;;;;;;;;;;;;;;;18.90;59.22;100580.78;4369432;32;38556;-87
2022/09/05 01:53:08;;;;;;;;;;;;;;;18.88;59.25;100579.91;4375386;32;38745;-86
2022/09/05 01:55:41;;;;;;;;;;;;;;;18.40;60.73;100579.25;4375492;32;37454;-86
2022/09/05 01:58:39;;;;;;;;;;;;;;;18.81;59.22;100580.84;4379501;32;37442;-86
2022/09/05 02:01:18;;;;;;;;;;;;;;;18.52;60.19;100579.19;4386819;32;37917;-85
2022/09/05 02:04:08;;;;;;;;;;;;;;;18.58;59.92;100581.81;4378696;32;38768;-88
2022/09/05 02:06:45;;;;;;;;;;;;;;;18.51;60.25;100581.84;4389409;32;37428;-86
2022/09/05 02:09:31;;;;;;;;;;;;;;;18.90;58.62;100586.03;4395429;32;38993;-86
2022/09/05 02:12:14;;;;;;;;;;;;;;;18.83;58.54;100586.97;4376707;32;37823;-87
2022/09/05 02:14:43;;;;;;;;;;;;;;;18.77;58.88;100579.13;4380431;32;38636;-86
2022/09/05 02:17:29;;;;;;;;;;;;;;;18.48;60.25;100584.47;4380239;32;37533;-87
2022/09/05 02:20:20;;;;;;;;;;;;;;;18.68;59.25;100579.13;4378283;32;38289;-88
2022/09/05 02:22:56;;;;;;;;;;;;;;;18.48;60.00;100590.59;4385487;32;37684;-87
2022/09/05 02:25:24;;;;;;;;;;;;;;;18.63;58.95;100575.66;4369738;32;38771;-85
2022/09/05 02:28:34;;;;;;;;;;;;;;;18.63;59.18;100580.91;4059076;32;10008032;-84
2022/09/05 02:31:05;;;;;;;;;;;;;;;18.43;59.96;100589.72;4369956;32;36919;-85
2022/09/05 02:33:50;;;;;;;;;;;;;;;18.36;60.12;100590.63;4346056;32;793736;-86
2022/09/05 02:36:37;;;;;;;;;;;;;;;18.73;58.69;100583.50;4359445;32;39729;-83
2022/09/05 02:39:12;;;;;;;;;;;;;;;18.54;59.16;100587.94;4386766;32;39095;-85
2022/09/05 02:42:13;;;;;;;;;;;;;;;18.76;58.40;100582.59;4369967;32;37461;-85
2022/09/05 02:45:03;;;;;;;;;;;;;;;18.56;59.16;100586.16;4304002;32;38046;-85
2022/09/05 02:47:55;;;;;;;;;;;;;;;18.12;60.70;100596.81;4373849;32;39270;-84
2022/09/05 02:50:26;;;;;;;;;;;;;;;18.47;59.57;100591.44;4383475;32;39497;-86
2022/09/05 02:53:14;;;;;;;;;;;;;;;18.33;60.11;100593.25;4375102;32;37311;-85
2022/09/05 02:56:09;;;;;;;;;;;;;;;18.44;59.65;100591.50;4384962;32;38353;-86
2022/09/05 02:59:17;;;;;;;;;;;;;;;18.64;59.24;100590.53;4367551;32;37849;-85
2022/09/05 03:02:02;;;;;;;;;;;;;;;18.40;60.09;100589.75;4367414;32;38863;-86
2022/09/05 03:04:52;;;;;;;;;;;;;;;18.29;60.21;100597.66;4388614;32;37817;-86
2022/09/05 03:07:50;;;;;;;;;;;;;;;18.48;59.80;100601.06;4383706;32;37884;-85
2022/09/05 03:10:24;;;;;;;;;;;;;;;18.34;60.46;100600.25;4384980;32;37991;-86
2022/09/05 03:13:11;;;;;;;;;;;;;;;18.45;59.83;100598.47;4382449;32;40095;-85
2022/09/05 03:15:54;;;;;;;;;;;;;;;18.51;59.62;100595.81;4378089;32;37156;-85
2022/09/05 03:18:30;;;;;;;;;;;;;;;18.44;59.78;100601.06;4369892;32;38119;-85
2022/09/05 03:21:02;;;;;;;;;;;;;;;18.49;59.55;100600.19;4371706;32;37952;-86
2022/09/05 03:23:35;;;;;;;;;;;;;;;18.32;60.06;100604.62;4381859;32;38637;-86
2022/09/05 03:26:22;;;;;;;;;;;;;;;18.21;60.61;100603.78;4384197;32;38028;-86
2022/09/05 03:28:58;;;;;;;;;;;;;;;18.42;59.77;100603.72;4370692;32;36844;-86
2022/09/05 03:31:31;;;;;;;;;;;;;;;18.49;59.36;100602.81;4384454;32;38910;-87
2022/09/05 03:33:59;;;;;;;;;;;;;;;18.46;58.98;100605.44;4375465;32;38856;-86
2022/09/05 03:36:29;;;;;;;;;;;;;;;18.33;59.71;100609.00;4369309;32;36727;-86
2022/09/05 03:38:57;;;;;;;;;;;;;;;18.46;59.53;100610.69;4369034;32;39095;-86
2022/09/05 03:41:41;;;;;;;;;;;;;;;18.46;59.25;100609.81;4369117;32;38321;-87
2022/09/05 03:44:22;;;;;;;;;;;;;;;18.34;59.77;100610.72;4380558;32;39037;-87
2022/09/05 03:46:49;;;;;;;;;;;;;;;18.50;59.03;100617.66;4373062;32;36986;-85
2022/09/05 03:49:35;;;;;;;;;;;;;;;18.27;59.81;100614.25;4368309;32;38073;-87
2022/09/05 03:52:44;;;;;;;;;;;;;;;18.38;59.40;100622.97;4374783;32;38564;-87
2022/09/05 03:55:38;;;;;;;;;;;;;;;18.16;60.21;100621.28;4368829;32;39103;-87
2022/09/05 03:58:33;;;;;;;;;;;;;;;18.04;60.33;100628.28;4378789;32;37171;-86
2022/09/05 04:01:22;;;;;;;;;;;;;;;18.19;59.77;100626.50;4382703;32;38399;-88
2022/09/05 04:04:25;;;;;;;;;;;;;;;18.28;59.49;100626.47;4374733;32;39778;-86
2022/09/05 04:07:17;;;;;;;;;;;;;;;18.16;60.13;100632.63;4354517;32;39643;-87
2022/09/05 04:10:25;;;;;;;;;;;;;;;18.06;60.39;100642.25;4363717;32;37680;-87
2022/09/05 04:12:57;;;;;;;;;;;;;;;18.24;59.57;100635.22;4354046;32;38905;-89
2022/09/05 04:15:39;;;;;;;;;;;;;;;18.22;59.65;100636.97;4385653;32;39205;-88
2022/09/05 04:18:16;;;;;;;;;;;;;;;18.31;59.25;100647.44;4379482;32;39127;-89
2022/09/05 04:20:55;;;;;;;;;;;;;;;18.24;59.53;100645.72;4366653;32;36489;-87
2022/09/05 04:23:25;;;;;;;;;;;;;;;18.52;58.84;100652.62;4370147;32;37767;-88
2022/09/05 04:26:02;;;;;;;;;;;;;;;18.43;59.22;100655.25;4375227;32;38094;-84
2022/09/05 04:28:58;;;;;;;;;;;;;;;18.51;58.76;100652.62;4368358;32;39707;-86
2022/09/05 04:31:25;;;;;;;;;;;;;;;18.35;59.58;100657.06;4368305;32;37182;-89
2022/09/05 04:34:03;;;;;;;;;;;;;;;18.48;59.00;100661.38;4374576;32;38396;-88
2022/09/05 04:36:33;;;;;;;;;;;;;;;18.35;59.51;100659.69;4366047;32;38153;-91
2022/09/05 04:39:16;;;;;;;;;;;;;;;18.41;59.19;100664.91;4378786;32;39053;-87
2022/09/05 04:41:48;;;;;;;;;;;;;;;18.25;60.13;100668.41;4384503;32;37654;-86
2022/09/05 04:44:16;;;;;;;;;;;;;;;18.36;59.65;100661.41;4374028;32;37892;-87
2022/09/05 04:46:47;;;;;;;;;;;;;;;18.40;59.67;100663.13;4384485;32;38134;-88
2022/09/05 04:49:18;;;;;;;;;;;;;;;18.51;59.53;100666.63;4383518;32;38626;-87
2022/09/05 04:51:56;;;;;;;;;;;;;;;18.22;60.83;100678.91;4376304;32;37059;-87
2022/09/05 04:54:29;;;;;;;;;;;;;;;18.44;59.83;100670.13;4372836;32;37923;-87
2022/09/05 04:57:17;;;;;;;;;;;;;;;18.55;59.68;100670.97;4387822;32;38190;-87
2022/09/05 04:59:52;;;;;;;;;;;;;;;18.36;60.38;100677.13;4378438;32;38689;-87
2022/09/05 05:02:43;;;;;;;;;;;;;;;18.55;59.93;100678.81;4392357;32;36702;-87
2022/09/05 05:05:41;;;;;;;;;;;;;;;18.73;59.21;100677.03;4382674;32;39267;-87
2022/09/05 05:08:39;;;;;;;;;;;;;;;18.67;59.75;100679.69;4392205;32;38819;-87
2022/09/05 05:11:11;;;;;;;;;;;;;;;18.84;59.05;100675.25;4370253;32;39472;-87
2022/09/05 05:14:20;;;;;;;;;;;;;;;18.83;58.96;100678.78;4374069;32;36800;-87
2022/09/05 05:17:19;;;;;;;;;;;;;;;18.83;58.96;100684.03;4377007;32;38009;-87
2022/09/05 05:20:08;;;;;;;;;;;;;;;18.88;59.08;100687.47;4367484;32;37869;-88
2022/09/05 05:23:06;;;;;;;;;;;;;;;19.09;58.41;100675.16;4377733;32;39236;-88
2022/09/05 05:25:46;;;;;;;;;;;;;;;19.14;57.88;100678.59;4387859;32;37132;-88
2022/09/05 05:28:15;;;;;;;;;;;;;;;18.84;59.41;100680.50;4381329;32;38784;-89
2022/09/05 05:31:07;;;;;;;;;;;;;;;19.17;58.31;100683.84;4385710;32;38050;-89
2022/09/05 05:33:34;;;;;;;;;;;;;;;19.17;57.38;100683.84;4369815;32;39232;-88
2022/09/05 05:36:06;;;;;;;;;;;;;;;19.29;57.22;100689.03;4370667;32;37418;-88
2022/09/05 05:38:35;;;;;;;;;;;;;;;19.30;57.98;100680.25;4381208;32;38898;-87
2022/09/05 05:41:11;;;;;;;;;;;;;;;19.44;57.56;100683.69;4381214;32;37616;-89
2022/09/05 05:43:39;;;;;;;;;;;;;;;19.57;57.08;100684.47;4370260;32;38727;-89
2022/09/05 05:46:33;;;;;;;;;;;;;;;19.61;57.36;100685.31;4351774;32;38271;-87
2022/09/05 05:49:07;;;;;;;;;;;;;;;19.76;55.90;100687.84;4366106;32;37460;-87
2022/09/05 05:51:51;;;;;;;;;;;;;;;19.79;56.59;100690.47;4359052;32;37845;-88
2022/09/05 05:54:48;;;;;;;;;;;;;;;19.71;57.29;100687.00;4357215;32;39902;-91
2022/09/05 05:57:18;;;;;;;;;;;;;;;19.75;57.30;100686.12;4355722;32;37019;-87
2022/09/05 05:59:45;;;;;;;;;;;;;;;19.82;57.44;100690.44;4366535;32;37699;-88
2022/09/05 06:02:45;;;;;;;;;;;;;;;19.92;57.43;100689.47;4378311;32;38950;-88
2022/09/05 06:05:54;;;;;;;;;;;;;;;20.05;56.43;100692.00;4384848;32;36795;-87
2022/09/05 06:08:22;;;;;;;;;;;;;;;20.19;56.51;100690.09;4371521;32;36498;-87
2022/09/05 06:11:15;;;;;;;;;;;;;;;20.11;57.10;100691.94;4392736;32;37941;-88
2022/09/05 06:14:21;;;;;;;;;;;;;;;20.36;56.35;100688.19;4385106;32;38357;-88
2022/09/05 06:17:32;;;;;;;;;;;;;;;20.49;56.11;100682.78;4389921;32;38830;-87
2022/09/05 06:20:02;;;;;;;;;;;;;;;20.60;56.02;100691.44;4378151;32;38907;-87
2022/09/05 06:23:09;;;;;;;;;;;;;;;20.57;56.00;100696.75;4379690;32;37982;-88
2022/09/05 06:25:56;;;;;;;;;;;;;;;20.70;55.55;100687.81;4389438;32;37521;-87
2022/09/05 06:28:32;;;;;;;;;;;;;;;20.78;55.69;100696.50;4375881;32;38584;-87
2022/09/05 06:31:09;;;;;;;;;;;;;;;21.05;55.27;100694.41;4393677;32;37809;-87
2022/09/05 06:34:02;;;;;;;;;;;;;;;21.31;54.52;100694.94;4378780;32;38100;-87
2022/09/05 06:36:30;;;;;;;;;;;;;;;21.55;54.16;100695.47;4373864;32;38046;-87
2022/09/05 06:39:01;;;;;;;;;;;;;;;21.47;53.55;100692.06;4376222;32;40195;-88
2022/09/05 06:41:28;;;;;;;;;;;;;;;21.50;53.04;100702.56;4376827;32;37248;-88
2022/09/05 06:44:14;;;;;;;;;;;;;;;21.63;52.85;100704.13;4376826;32;39054;-87
2022/09/05 06:46:42;;;;;;;;;;;;;;;21.60;53.31;100704.16;4377202;32;37731;-87
2022/09/05 06:49:50;;;;;;;;;;;;;;;21.70;53.36;100703.16;4380171;32;38965;-87
2022/09/05 06:52:31;;;;;;;;;;;;;;;21.78;53.53;100709.16;4379357;32;37537;-87
2022/09/05 06:55:17;;;;;;;;;;;;;;;22.24;53.11;100707.56;4379824;32;37951;-88
2022/09/05 06:57:53;;;;;;;;;;;;;;;22.44;51.75;100715.09;4380546;32;38199;-88
2022/09/05 07:00:23;;;;;;;;;;;;;;;22.88;50.38;100713.34;4367678;32;39245;-87
2022/09/05 07:02:55;;;;;;;;;;;;;;;23.19;49.78;100706.53;4379929;32;37558;-88
2022/09/05 07:05:38;;;;;;;;;;;;;;;23.52;49.28;100706.69;4378979;32;39112;-87
2022/09/05 07:08:29;;;;;;;;;;;;;;;23.75;47.44;100703.53;4376466;32;39116;-87
2022/09/05 07:11:07;;;;;;;;;;;;;;;24.17;48.31;100702.47;4379720;32;39206;-88
2022/09/05 07:14:26;;;;;;;;;;;;;;;24.62;47.13;100707.47;4381064;32;36904;-88
2022/09/05 07:16:55;;;;;;;;;;;;;;;24.92;46.96;100703.94;4335185;32;38851;-88
2022/09/05 07:19:28;;;;;;;;;;;;;;;25.46;45.15;100708.50;4323162;33;38101;-88
2022/09/05 07:22:13;;;;;;;;;;;;;;;25.70;44.29;100711.28;4360734;32;39271;-88
2022/09/05 07:25:05;;;;;;;;;;;;;;;25.89;44.72;100715.09;4375535;32;36814;-88
2022/09/05 07:27:44;;;;;;;;;;;;;;;25.75;43.51;100712.00;4376259;32;37859;-88
2022/09/05 07:30:31;;;;;;;;;;;;;;;26.15;46.18;100716.00;4377580;32;38786;-87
2022/09/05 07:32:59;;;;;;;;;;;;;;;26.43;44.84;100706.16;4392635;32;40220;-88
2022/09/05 07:35:28;;;;;;;;;;;;;;;26.19;45.66;100712.31;4382078;32;36923;-87
2022/09/05 07:38:12;;;;;;;;;;;;;;;26.41;42.66;100707.13;4370517;32;37216;-88
2022/09/05 07:40:40;;;;;;;;;;;;;;;26.79;42.92;100707.56;4383373;32;37820;-88
2022/09/05 07:43:15;;;;;;;;;;;;;;;27.09;41.02;100714.38;4386724;32;38489;-89
2022/09/05 07:45:50;;;;;;;;;;;;;;;26.88;39.96;100702.75;4383385;32;37212;-87
2022/09/05 07:48:23;;;;;;;;;;;;;;;27.09;41.02;100706.41;4394376;32;37860;-88
2022/09/05 07:51:03;;;;;;;;;;;;;;;27.40;41.65;100709.66;4393328;32;38453;-86
2022/09/05 07:53:52;;;;;;;;;;;;;;;27.21;39.19;100710.38;4393985;32;38873;-87
2022/09/05 07:56:52;;;;;;;;;;;;;;;27.90;39.49;100704.13;4399209;32;36862;-87
2022/09/05 07:59:40;;;;;;;;;;;;;;;27.73;38.60;100703.00;4398623;32;39063;-86
2022/09/05 08:02:08;;;;;;;;;;;;;;;27.94;38.16;100695.06;4376350;32;38360;-86
2022/09/05 08:04:38;;;;;;;;;;;;;;;27.99;35.85;100693.09;4371219;32;39938;-89
2022/09/05 08:07:12;;;;;;;;;;;;;;;27.75;36.50;100695.81;4371879;32;37910;-88
2022/09/05 08:10:04;;;;;;;;;;;;;;;28.15;35.72;100695.97;4361113;32;37811;-88
2022/09/05 08:12:37;;;;;;;;;;;;;;;27.87;36.07;100693.59;4357216;32;38847;-88
2022/09/05 08:15:26;;;;;;;;;;;;;;;28.10;36.83;100696.12;4364442;32;38777;-90
2022/09/05 08:18:33;;;;;;;;;;;;;;;28.48;36.54;100701.63;4375865;32;38015;-88
2022/09/05 08:21:05;;;;;;;;;;;;;;;28.66;34.61;100706.12;4367894;32;38032;-90
2022/09/05 08:23:32;;;;;;;;;;;;;;;28.42;35.59;100696.56;4385877;32;38405;-90
2022/09/05 08:26:11;;;;;;;;;;;;;;;28.82;36.76;100700.12;4368525;32;39681;-89
2022/09/05 08:28:42;;;;;;;;;;;;;;;29.04;36.13;100695.56;4386707;32;37452;-89
2022/09/05 08:31:11;;;;;;;;;;;;;;;28.76;36.12;100695.06;4368966;32;37441;-91
2022/09/05 08:33:38;;;;;;;;;;;;;;;29.01;35.08;100695.69;4379235;32;38052;-90
2022/09/05 08:36:25;;;;;;;;;;;;;;;29.16;33.74;100694.97;4367555;32;39936;-90
2022/09/05 08:38:53;;;;;;;;;;;;;;;28.85;34.10;100700.84;4368810;32;36871;-89
2022/09/05 08:41:32;;;;;;;;;;;;;;;28.80;35.71;100697.50;4379420;32;38044;-88
2022/09/05 08:44:30;;;;;;;;;;;;;;;29.38;33.46;100693.91;4368214;32;37971;-89
2022/09/05 08:47:24;;;;;;;;;;;;;;;28.93;37.09;100693.34;4367252;32;38889;-89
2022/09/05 08:50:00;;;;;;;;;;;;;;;28.27;38.03;100692.75;4367367;32;36742;-89
2022/09/05 08:52:37;;;;;;;;;;;;;;;28.47;34.65;100683.94;4371229;32;37928;-88
2022/09/05 08:55:23;;;;;;;;;;;;;;;28.85;36.19;100684.00;4367330;32;38824;-88
2022/09/05 08:57:57;;;;;;;;;;;;;;;29.03;36.54;100688.47;4374583;32;38812;-89
2022/09/05 09:00:25;;;;;;;;;;;;;;;29.59;31.64;100682.19;4369146;32;38350;-89
2022/09/05 09:03:11;;;;;;;;;;;;;;;29.51;35.45;100679.03;4357516;32;37173;-90
2022/09/05 09:05:45;;;;;;;;;;;;;;;29.42;32.98;100684.84;4369248;32;37842;-89
2022/09/05 09:08:52;;;;;;;;;;;;;;;29.36;33.17;100674.47;4370248;32;38956;-90
2022/09/05 09:11:38;;;;;;;;;;;;;;;29.20;33.25;100669.88;4370163;32;37317;-90
2022/09/05 09:14:17;;;;;;;;;;;;;;;29.22;34.71;100660.94;4374029;32;38246;-89
2022/09/05 09:17:15;;;;;;;;;;;;;;;29.55;34.12;100656.63;4366572;32;36799;-90
2022/09/05 09:19:51;;;;;;;;;;;;;;;29.10;34.92;100662.38;4376575;32;38605;-89
2022/09/05 09:22:35;;;;;;;;;;;;;;;29.85;33.30;100656.03;4369046;32;37767;-89
2022/09/05 09:25:10;;;;;;;;;;;;;;;29.55;34.24;100664.63;4381407;32;38481;-90
2022/09/05 09:27:48;;;;;;;;;;;;;;;29.16;38.66;100657.66;4370073;32;38302;-90
2022/09/05 09:30:35;;;;;;;;;;;;;;;29.55;34.87;100661.97;4370195;32;40226;-89
2022/09/05 09:33:03;;;;;;;;;;;;;;;29.76;33.77;100662.69;4374946;32;37128;-89
2022/09/05 09:35:51;;;;;;;;;;;;;;;29.76;34.29;100661.84;4373184;32;39191;-89
2022/09/05 09:38:34;;;;;;;;;;;;;;;29.74;33.38;100661.03;4387428;32;38800;-90
2022/09/05 09:41:17;;;;;;;;;;;;;;;29.80;34.16;100668.75;4368794;32;38717;-89
2022/09/05 09:44:04;;;;;;;;;;;;;;;29.63;35.70;100666.94;4370354;32;36743;-89
2022/09/05 09:46:33;;;;;;;;;;;;;;;29.98;33.19;100670.47;4369685;32;38482;-89
2022/09/05 09:49:11;;;;;;;;;;;;;;;30.10;32.64;100659.19;4373699;32;38583;-89
2022/09/05 09:52:08;;;;;;;;;;;;;;;29.85;33.64;100656.91;4367692;32;39943;-89
2022/09/05 09:54:58;;;;;;;;;;;;;;;30.34;32.63;100653.50;4365279;32;36915;-89
2022/09/05 09:57:35;;;;;;;;;;;;;;;30.01;32.23;100656.97;4366458;32;37950;-89
2022/09/05 10:00:04;;;;;;;;;;;;;;;29.90;33.46;100654.00;4370369;32;38303;-89
2022/09/05 10:02:47;;;;;;;;;;;;;;;29.79;33.62;100645.69;4370062;32;38891;-89
2022/09/05 10:05:48;;;;;;;;;;;;;;;30.08;34.08;100653.03;4369419;32;36882;-90
2022/09/05 10:08:36;;;;;;;;;;;;;;;29.61;33.37;100647.47;4370940;32;37887;-89
2022/09/05 10:11:23;;;;;;;;;;;;;;;29.66;35.27;100651.63;4382948;32;38183;-89
2022/09/05 10:14:20;;;;;;;;;;;;;;;30.09;33.95;100644.09;4376544;32;38906;-89
2022/09/05 10:17:25;;;;;;;;;;;;;;;29.20;36.03;100647.69;4370082;32;36972;-89
2022/09/05 10:19:56;;;;;;;;;;;;;;;29.35;34.41;100646.06;4373238;32;37802;-89
2022/09/05 10:22:43;;;;;;;;;;;;;;;29.48;35.64;100647.16;4343080;32;38126;-88
2022/09/05 10:25:32;;;;;;;;;;;;;;;29.12;35.43;100645.38;4383496;32;39740;-89
2022/09/05 10:28:10;;;;;;;;;;;;;;;29.97;31.84;100644.75;4395810;32;36279;-89
2022/09/05 10:30:42;;;;;;;;;;;;;;;29.38;34.81;100643.25;4393925;32;38046;-89
2022/09/05 10:33:34;;;;;;;;;;;;;;;29.60;34.87;100641.25;4360441;32;38433;-89
2022/09/05 10:36:23;;;;;;;;;;;;;;;29.83;33.21;100636.56;4369361;32;38840;-88
2022/09/05 10:38:58;;;;;;;;;;;;;;;29.84;34.14;100636.50;4372174;32;36977;-88
2022/09/05 10:41:38;;;;;;;;;;;;;;;30.03;32.15;100628.41;4381084;32;38495;-89
2022/09/05 10:44:06;;;;;;;;;;;;;;;30.28;32.52;100619.09;4383431;32;39221;-89
2022/09/05 10:46:38;;;;;;;;;;;;;;;30.28;33.53;100622.66;4383918;32;39051;-89
2022/09/05 10:49:21;;;;;;;;;;;;;;;30.67;31.90;100623.25;4383269;32;37365;-89
2022/09/05 10:51:53;;;;;;;;;;;;;;;30.59;32.53;100621.84;4361802;32;37756;-89
2022/09/05 10:54:42;;;;;;;;;;;;;;;30.36;32.02;100619.56;4370962;32;38887;-88
2022/09/05 10:57:19;;;;;;;;;;;;;;;30.17;31.99;100602.78;4352613;32;40642;-88
2022/09/05 11:00:05;;;;;;;;;;;;;;;30.22;31.60;100603.44;4386369;32;36998;-89
2022/09/05 11:02:54;;;;;;;;;;;;;;;30.59;30.20;100603.13;4385479;32;38159;-86
2022/09/05 11:05:25;;;;;;;;;;;;;;;29.64;33.63;100609.94;4385861;32;38102;-86
2022/09/05 11:07:58;;;;;;;;;;;;;;;30.35;31.35;100602.69;4400371;32;38701;-87
2022/09/05 11:10:44;;;;;;;;;;;;;;;29.50;35.84;100602.63;4394735;32;36486;-88
2022/09/05 11:13:26;;;;;;;;;;;;;;;28.91;35.44;100603.75;4399905;32;38670;-89
2022/09/05 11:16:08;;;;;;;;;;;;;;;29.08;36.70;100601.16;4389881;32;38618;-89
2022/09/05 11:18:46;;;;;;;;;;;;;;;29.45;33.61;100599.31;4382612;32;38396;-88
2022/09/05 11:21:25;;;;;;;;;;;;;;;29.74;34.76;100589.87;4382574;32;37243;-88
2022/09/05 11:23:54;;;;;;;;;;;;;;;29.80;33.79;100594.00;4387918;32;38030;-88
2022/09/05 11:26:28;;;;;;;;;;;;;;;30.35;31.72;100591.12;4373286;32;38280;-90
2022/09/05 11:28:56;;;;;;;;;;;;;;;30.51;31.98;100592.03;4399886;32;39861;-89
2022/09/05 11:31:36;;;;;;;;;;;;;;;29.95;33.32;100585.22;4368232;32;35990;-88
2022/09/05 11:34:30;;;;;;;;;;;;;;;30.28;32.16;100590.63;4368153;32;38847;-89
2022/09/05 11:37:26;;;;;;;;;;;;;;;30.10;30.35;100580.88;4369534;32;39207;-88
2022/09/05 11:40:16;;;;;;;;;;;;;;;29.19;33.83;100588.12;4368819;32;39116;-89
2022/09/05 11:43:17;;;;;;;;;;;;;;;29.54;33.64;100590.84;4382291;32;35801;-87
2022/09/05 11:45:57;;;;;;;;;;;;;;;29.36;34.26;100586.47;4384240;32;38003;-89
2022/09/05 11:48:38;;;;;;;;;;;;;;;29.03;35.12;100581.81;4390460;32;37824;-89
2022/09/05 11:51:30;;;;;;;;;;;;;;;29.03;35.93;100581.81;4382698;32;40075;-87
2022/09/05 11:54:12;;;;;;;;;;;;;;;28.85;36.77;100582.72;4389481;32;37119;-87
2022/09/05 11:56:55;;;;;;;;;;;;;;;28.95;35.25;100571.50;4390710;32;39280;-89
2022/09/05 11:59:57;;;;;;;;;;;;;;;28.79;35.95;100575.00;4384048;32;38748;-89
2022/09/05 12:02:48;;;;;;;;;;;;;;;28.80;36.23;100576.72;4387772;32;38293;-90
2022/09/05 12:05:31;;;;;;;;;;;;;;;29.32;33.67;100566.19;4385979;32;37962;-90
2022/09/05 12:08:54;;;;;;;;;;;;;;;28.63;34.34;100573.06;4382381;32;37757;-90
2022/09/05 12:11:24;;;;;;;;;;;;;;;28.97;33.87;100576.75;4335602;32;37770;-90
2022/09/05 12:14:10;;;;;;;;;;;;;;;29.14;33.92;100566.19;4376593;32;38512;-90
2022/09/05 12:17:05;;;;;;;;;;;;;;;28.84;35.12;100568.50;4383451;32;50302;-90
2022/09/05 12:19:50;;;;;;;;;;;;;;;28.84;35.30;100567.62;4383796;32;38288;-89
2022/09/05 12:22:35;;;;;;;;;;;;;;;28.64;36.31;100563.25;4377022;32;39282;-89
2022/09/05 12:25:12;;;;;;;;;;;;;;;28.54;37.57;100561.97;4369202;32;39130;-89
2022/09/05 12:28:06;;;;;;;;;;;;;;;28.52;37.10;100564.69;4377783;32;38207;-90
2022/09/05 12:31:08;;;;;;;;;;;;;;;28.67;37.82;100563.97;4378570;32;38866;-91
2022/09/05 12:33:55;;;;;;;;;;;;;;;28.39;37.19;100563.50;4389691;32;38062;-91
2022/09/05 12:36:47;;;;;;;;;;;;;;;28.28;39.20;100554.22;4387970;32;39041;-89
2022/09/05 12:39:36;;;;;;;;;;;;;;;28.44;38.65;100550.88;4377967;32;36658;-89
2022/09/05 12:42:27;;;;;;;;;;;;;;;28.27;39.60;100548.94;4378160;32;38694;-89
2022/09/05 12:45:25;;;;;;;;;;;;;;;28.09;38.24;100545.34;4384064;32;38939;-90
2022/09/05 12:48:07;;;;;;;;;;;;;;;28.16;35.68;100530.81;4376702;32;39418;-89
2022/09/05 12:50:53;;;;;;;;;;;;;;;28.54;37.48;100541.53;4376694;32;36967;-90
2022/09/05 12:53:21;;;;;;;;;;;;;;;28.63;35.42;100541.09;4384228;32;38335;-88
2022/09/05 12:55:52;;;;;;;;;;;;;;;29.06;34.94;100533.69;4380270;32;37861;-90
2022/09/05 12:58:41;;;;;;;;;;;;;;;29.28;33.96;100530.81;4377100;32;38783;-91
2022/09/05 13:01:32;;;;;;;;;;;;;;;29.42;33.82;100522.13;4378843;32;37958;-91
2022/09/05 13:04:23;;;;;;;;;;;;;;;29.05;34.21;100525.78;4381257;32;38160;-93
2022/09/05 13:07:05;;;;;;;;;;;;;;;29.40;34.36;100527.53;4382146;32;38723;-90
2022/09/05 13:09:36;;;;;;;;;;;;;;;29.03;36.25;100523.19;4377878;32;39705;-89
2022/09/05 13:12:50;;;;;;;;;;;;;;;29.04;35.23;100519.59;4376740;32;38032;-92
2022/09/05 13:15:38;;;;;;;;;;;;;;;29.38;34.71;100512.53;4381206;32;37839;-90
2022/09/05 13:18:10;;;;;;;;;;;;;;;29.50;33.89;100505.72;4380631;32;39176;-91
2022/09/05 13:20:44;;;;;;;;;;;;;;;29.74;33.37;100508.91;4384825;32;39127;-90
2022/09/05 13:23:11;;;;;;;;;;;;;;;29.89;32.67;100508.09;4387421;32;37480;-90
2022/09/05 13:25:40;;;;;;;;;;;;;;;29.73;33.70;100508.06;4384870;32;37818;-88
2022/09/05 13:28:08;;;;;;;;;;;;;;;29.75;32.33;100505.31;4397038;32;39107;-89
2022/09/05 13:30:37;;;;;;;;;;;;;;;29.79;32.69;100506.88;4387449;32;38814;-96
2022/09/05 13:33:45;;;;;;;;;;;;;;;29.82;33.19;100506.72;4379529;32;37546;-90
2022/09/05 13:36:32;;;;;;;;;;;;;;;30.04;33.00;100501.94;4381287;32;38264;-93
2022/09/05 13:39:21;;;;;;;;;;;;;;;29.82;32.86;100496.91;4379935;32;37846;-93
2022/09/05 13:41:50;;;;;;;;;;;;;;;29.94;34.40;100500.72;4376844;32;39854;-92
2022/09/05 13:44:20;;;;;;;;;;;;;;;29.98;33.86;100502.28;4383986;32;37883;-92
2022/09/05 13:46:54;;;;;;;;;;;;;;;29.99;32.63;100498.66;4371637;32;38362;-89
2022/09/05 13:49:26;;;;;;;;;;;;;;;29.88;32.94;100490.38;4378746;32;37868;-94
2022/09/05 13:52:28;;;;;;;;;;;;;;;30.13;33.11;100493.44;4380009;32;38954;-93
2022/09/05 13:55:01;;;;;;;;;;;;;;;30.27;31.29;100483.84;4393064;32;37329;-92